Lovell, ME

12:58 PM EST on November 21, 2014 (GMT -0500)
Creeper Hill, NW Cove Kezar Lake | Change Station
CLOSE
Current Station
Personal Weather Station
Location: Stow, ME
Elevation: 385 ft
Nearby Weather Stations

Elev 385 ft 44.17 °N, 70.94 °W | Updated 6 seconds ago

Overcast
Overcast
27.4 °F
Feels Like 18 °F
N
10.0
Wind Variable Wind from North
Gusts 10.0 mph

Today
High -- | Low -- °F
--% Chance of Precip.
Yesterday
High -- | Low -- °F
Precip. -- in
6:47 AM 4:11 PM
Waning Crescent, 1% visible
Pressure 30.10 in
Visibility 10.0 miles
Clouds Scattered Clouds 4000 ft
Windchill 18 °F
Dew Point 12 °F
Humidity 52%
Rainfall 0.00 in
Snow Depth Not available.
UV 2 out of 12
Pollen .10 out of 12
Air Quality Not available.
Flu Activity Not available.
METAR KIZG 211754Z AUTO 29011G21KT 160V330 10SM SCT040 M02/M13 A3007 RMK AO2 PK WND 31029/1727 SLP191 T10221133 11017 21056 51017

More Conditions Fewer Conditions

Pressure 30.10 in
Visibility 10.0 miles
Clouds Scattered Clouds 4000 ft
Windchill 18 °F
Dew Point 12 °F
Humidity 52%
Rainfall 0.00 in
Snow Depth Not available.
UV 2 out of 12
Pollen .10 out of 12
Air Quality Not available.
Flu Activity Not available.
METAR KIZG 211754Z AUTO 29011G21KT 160V330 10SM SCT040 M02/M13 A3007 RMK AO2 PK WND 31029/1727 SLP191 T10221133 11017 21056 51017

More Conditions Fewer Conditions

10-Day Weather Forecast

Almanac

Astronomy

Nov. 21, 2014 Rise Set
Actual Time
Civil Twilight
Nautical Twilight
Astronomical Twilight
Moon
Length of Visible Light
Length of Day
Tomorrow will be .
, % of the Moon is Illuminated

Today's Extremes

State Highs State Lows

Community

WunderPhotos

Upload Photos

1,772,693 photos uploaded!

WunderBlogs® & News

Nearby

Air Quality

  Air Quality AQ Index Pollutant
Not available.

Snow Depth

Station Depth Elevation

Earthquake Activity

City Distance Mag. Time & Date
Minimum magnitude displayed is 2.5.

Coastal Water Temperatures

Place Temperature

Nearby Weather Stations